Time;durP1;ratioP1;P1;durP2;ratioP2;P2;SDS_P1;SDS_P2;PMS_P1;PMS_P2;Temp;Humidity;BMP_temperature;BMP_pressure;BME280_temperature;BME280_humidity;BME280_pressure;Samples;Min_cycle;Max_cycle;Signal;HPM_P1;HPM_P2
2023/07/09 00:02:26;;;;;;;9.38;5.60;;;;;;;21.92;59.42;101961.69;7393597;19;20059;-56
2023/07/09 00:04:53;;;;;;;9.80;5.80;;;;;;;21.88;59.53;101963.00;7389967;19;20018;-56
2023/07/09 00:07:31;;;;;;;8.95;5.85;;;;;;;21.88;59.47;101963.84;7392779;19;20034;-56
2023/07/09 00:09:59;;;;;;;9.13;5.68;;;;;;;21.81;59.92;101953.84;7393186;19;20491;-57
2023/07/09 00:12:27;;;;;;;8.73;5.88;;;;;;;21.76;59.54;101956.19;7393165;19;20081;-56
2023/07/09 00:14:56;;;;;;;9.93;5.75;;;;;;;21.75;59.58;101958.03;7391148;19;20512;-56
2023/07/09 00:17:30;;;;;;;9.07;5.30;;;;;;;21.77;59.71;101958.72;7391168;19;20015;-55
2023/07/09 00:19:58;;;;;;;8.38;5.43;;;;;;;21.72;59.78;101965.59;7393062;19;20483;-55
2023/07/09 00:22:26;;;;;;;10.27;5.47;;;;;;;21.76;60.03;101964.28;7392767;19;20017;-55
2023/07/09 00:24:56;;;;;;;9.77;5.43;;;;;;;21.74;60.23;101963.56;7390886;19;20097;-55
2023/07/09 00:27:28;;;;;;;9.13;5.75;;;;;;;21.70;60.73;101964.88;7392038;19;20014;-55
2023/07/09 00:29:56;;;;;;;9.88;5.40;;;;;;;21.66;61.02;101967.03;7393275;19;20011;-55
2023/07/09 00:32:24;;;;;;;9.70;5.93;;;;;;;21.62;61.16;101961.13;7392633;19;20093;-55
2023/07/09 00:34:53;;;;;;;9.68;5.60;;;;;;;21.55;61.34;101960.03;7390907;19;20328;-55
2023/07/09 00:37:27;;;;;;;9.65;5.30;;;;;;;21.54;60.89;101971.00;7393893;19;20010;-54
2023/07/09 00:39:54;;;;;;;8.85;5.25;;;;;;;21.52;61.01;101967.59;7390428;19;20090;-56
2023/07/09 00:42:23;;;;;;;9.05;5.25;;;;;;;21.53;61.22;101970.16;7392154;19;20026;-55
2023/07/09 00:44:52;;;;;;;11.43;6.20;;;;;;;21.32;62.15;101964.19;7390599;19;20018;-56
2023/07/09 00:47:42;;;;;;;9.25;5.75;;;;;;;21.45;61.74;101969.22;7391674;19;20023;-58
2023/07/09 00:50:41;;;;;;;11.00;6.10;;;;;;;21.40;61.39;101972.38;7392054;19;20018;-58
2023/07/09 00:53:25;;;;;;;9.93;6.05;;;;;;;21.30;61.91;101969.72;7391514;19;20026;-58
2023/07/09 00:55:59;;;;;;;9.77;6.30;;;;;;;21.23;62.09;101970.50;7388898;19;20028;-57
2023/07/09 00:58:28;;;;;;;11.75;6.20;;;;;;;21.23;62.35;101973.19;7391776;19;20019;-60
2023/07/09 01:01:02;;;;;;;12.32;6.25;;;;;;;21.18;62.88;101979.88;7389950;19;20047;-60
2023/07/09 01:03:58;;;;;;;9.45;6.13;;;;;;;21.25;62.94;101969.31;7391560;19;20140;-56
2023/07/09 01:06:38;;;;;;;9.10;6.15;;;;;;;21.21;62.57;101961.72;7390936;19;20476;-56
2023/07/09 01:09:07;;;;;;;10.63;6.40;;;;;;;21.10;63.18;101963.66;7388804;19;20034;-56
2023/07/09 01:11:37;;;;;;;10.40;5.97;;;;;;;21.03;62.74;101964.41;7389322;19;20035;-56
2023/07/09 01:14:08;;;;;;;11.32;6.35;;;;;;;20.99;62.59;101963.00;7390454;19;20038;-56
2023/07/09 01:16:39;;;;;;;12.00;6.60;;;;;;;20.95;62.81;101957.09;7390837;19;20014;-56
2023/07/09 01:19:06;;;;;;;10.02;6.18;;;;;;;21.00;62.73;101949.38;7391044;19;20026;-56
2023/07/09 01:21:34;;;;;;;9.20;6.18;;;;;;;21.07;62.40;101955.84;7390637;19;20015;-57
2023/07/09 01:24:19;;;;;;;10.50;6.10;;;;;;;21.21;62.53;101950.94;7389783;19;20103;-54
2023/07/09 01:26:46;;;;;;;14.10;6.68;;;;;;;21.15;62.26;101953.25;7388219;19;20023;-56
2023/07/09 01:29:14;;;;;;;9.52;6.10;;;;;;;21.08;62.46;101954.84;7390239;19;20089;-58
2023/07/09 01:31:41;;;;;;;9.93;6.05;;;;;;;21.01;63.02;101947.53;7389210;19;20022;-58
2023/07/09 01:34:08;;;;;;;9.88;6.47;;;;;;;20.96;62.86;101953.38;7389521;19;20484;-58
2023/07/09 01:36:39;;;;;;;9.45;6.50;;;;;;;20.87;63.52;101963.22;7391378;19;20039;-59
2023/07/09 01:39:07;;;;;;;12.23;6.78;;;;;;;20.79;63.61;101959.56;7390278;19;20499;-59
2023/07/09 01:41:34;;;;;;;10.57;5.95;;;;;;;20.77;63.88;101964.28;7388724;19;20022;-59
2023/07/09 01:44:01;;;;;;;8.75;6.05;;;;;;;20.81;63.43;101965.66;7389207;19;20547;-57
2023/07/09 01:46:30;;;;;;;9.70;6.18;;;;;;;20.71;63.76;101963.00;7388068;19;20029;-57
2023/07/09 01:48:57;;;;;;;9.13;6.30;;;;;;;20.71;63.74;101968.38;7390256;19;20344;-59
2023/07/09 01:51:27;;;;;;;9.85;6.28;;;;;;;20.62;63.82;101963.91;7390077;19;20132;-60
2023/07/09 01:53:54;;;;;;;11.70;6.63;;;;;;;20.64;64.00;101968.16;7388896;19;20057;-59
2023/07/09 01:56:24;;;;;;;11.00;6.07;;;;;;;20.64;63.76;101962.78;7389412;19;20006;-60
2023/07/09 01:58:51;;;;;;;10.80;6.80;;;;;;;20.58;64.12;101970.59;7390331;19;20022;-60
2023/07/09 02:01:19;;;;;;;11.48;6.03;;;;;;;20.52;64.01;101969.31;7390041;19;20031;-60
2023/07/09 02:03:47;;;;;;;13.30;6.28;;;;;;;20.48;64.08;101970.59;7389134;19;20479;-60
2023/07/09 02:06:14;;;;;;;11.05;7.40;;;;;;;20.42;64.20;101969.34;7387130;19;20367;-60
2023/07/09 02:08:41;;;;;;;11.52;7.20;;;;;;;20.30;64.88;101970.53;7387820;19;20023;-60
2023/07/09 02:11:08;;;;;;;11.00;6.70;;;;;;;20.21;65.25;101966.88;7389900;19;20021;-60
2023/07/09 02:13:35;;;;;;;11.60;6.63;;;;;;;20.19;65.04;101968.88;7395321;19;20677;-60
2023/07/09 02:16:03;;;;;;;11.43;6.25;;;;;;;20.21;65.00;101971.41;7391996;19;20018;-60
2023/07/09 02:18:30;;;;;;;11.60;6.35;;;;;;;20.25;64.68;101971.97;7395182;19;20093;-59
2023/07/09 02:20:58;;;;;;;11.07;6.53;;;;;;;20.18;64.61;101971.69;7396402;19;20015;-60
2023/07/09 02:23:28;;;;;;;9.77;6.05;;;;;;;20.16;64.53;101960.25;7396429;19;20064;-60
2023/07/09 02:25:55;;;;;;;13.05;6.40;;;;;;;20.20;64.29;101964.34;7392557;19;20023;-57
2023/07/09 02:28:23;;;;;;;11.63;6.32;;;;;;;20.18;64.06;101967.19;7396393;19;20092;-57
2023/07/09 02:30:50;;;;;;;11.40;6.45;;;;;;;20.17;64.02;101960.09;7396706;19;20032;-58
2023/07/09 02:33:20;;;;;;;11.30;6.80;;;;;;;20.14;64.23;101954.97;7396444;19;20515;-58
2023/07/09 02:35:47;;;;;;;11.75;6.60;;;;;;;20.13;64.31;101958.69;7393100;19;20043;-57
2023/07/09 02:38:14;;;;;;;11.48;6.90;;;;;;;20.09;64.43;101951.91;7396296;19;20018;-57
2023/07/09 02:40:42;;;;;;;11.45;6.75;;;;;;;20.09;64.04;101946.53;7396006;19;20043;-57
2023/07/09 02:43:09;;;;;;;10.25;6.93;;;;;;;20.09;63.92;101949.22;7395674;19;20042;-58
2023/07/09 02:45:36;;;;;;;11.95;7.93;;;;;;;20.17;63.76;101948.47;7392997;19;20022;-58
2023/07/09 02:48:04;;;;;;;12.82;6.68;;;;;;;20.13;64.09;101947.06;7396251;19;20029;-57
2023/07/09 02:50:31;;;;;;;12.23;6.97;;;;;;;19.78;64.63;101950.41;7395897;19;20030;-57
2023/07/09 02:52:58;;;;;;;11.02;6.68;;;;;;;19.71;65.25;101956.34;7394462;19;20038;-57
2023/07/09 02:55:26;;;;;;;10.38;7.00;;;;;;;19.91;64.53;101953.63;7393042;19;20044;-57
2023/07/09 02:57:53;;;;;;;8.95;6.10;;;;;;;20.02;64.59;101956.16;7395215;19;20019;-56
2023/07/09 03:00:20;;;;;;;10.80;6.25;;;;;;;19.98;64.95;101954.75;7395305;19;20062;-51
2023/07/09 03:02:47;;;;;;;10.45;6.35;;;;;;;19.95;64.67;101950.50;7396042;19;20015;-56
2023/07/09 03:05:15;;;;;;;12.90;6.43;;;;;;;19.92;64.53;101952.66;7392483;19;20015;-54
2023/07/09 03:07:42;;;;;;;10.88;5.90;;;;;;;19.89;64.59;101958.31;7395270;19;20014;-54
2023/07/09 03:10:09;;;;;;;10.80;6.22;;;;;;;19.84;64.88;101955.19;7395087;19;20014;-53
2023/07/09 03:12:37;;;;;;;11.13;6.63;;;;;;;19.72;64.94;101952.66;7395126;19;20046;-54
2023/07/09 03:15:04;;;;;;;8.98;6.43;;;;;;;19.73;64.54;101953.53;7392055;19;20036;-57
2023/07/09 03:17:32;;;;;;;10.40;7.07;;;;;;;19.80;64.63;101954.63;7395067;19;20374;-55
2023/07/09 03:19:59;;;;;;;9.27;6.25;;;;;;;19.82;64.45;101957.19;7395401;19;20344;-56
2023/07/09 03:22:26;;;;;;;8.82;6.13;;;;;;;19.81;64.45;101961.72;7394924;19;20021;-56
2023/07/09 03:24:53;;;;;;;10.93;6.10;;;;;;;19.79;64.09;101961.00;7391868;19;20070;-55
2023/07/09 03:27:21;;;;;;;10.05;6.57;;;;;;;19.79;64.13;101958.31;7394258;19;20015;-55
2023/07/09 03:29:48;;;;;;;9.93;6.10;;;;;;;19.84;63.98;101964.13;7394738;19;20022;-56
2023/07/09 03:32:15;;;;;;;11.02;6.47;;;;;;;19.85;63.91;101963.13;7395044;19;20019;-56
2023/07/09 03:34:43;;;;;;;9.20;6.45;;;;;;;19.83;64.10;101959.72;7393101;19;20019;-57
2023/07/09 03:37:10;;;;;;;9.57;6.32;;;;;;;19.77;63.73;101967.53;7396723;19;20019;-57
2023/07/09 03:39:37;;;;;;;11.13;6.35;;;;;;;19.72;64.12;101962.56;7394243;19;20508;-57
2023/07/09 03:42:05;;;;;;;9.82;6.10;;;;;;;19.71;64.19;101967.09;7393647;19;20019;-57
2023/07/09 03:44:32;;;;;;;11.57;6.85;;;;;;;19.79;63.92;101970.94;7392951;19;20023;-61
2023/07/09 03:46:59;;;;;;;11.43;6.43;;;;;;;19.62;64.33;101967.97;7393165;19;20023;-54
2023/07/09 03:49:27;;;;;;;8.73;6.00;;;;;;;19.61;64.92;101966.25;7393998;19;20147;-55
2023/07/09 03:51:54;;;;;;;7.85;5.75;;;;;;;19.76;63.91;101965.81;7393634;19;20014;-54
2023/07/09 03:54:22;;;;;;;9.85;5.63;;;;;;;19.74;64.22;101965.13;7390537;19;20015;-59
2023/07/09 03:56:53;;;;;;;9.98;5.72;;;;;;;19.87;64.06;101973.75;7392609;19;20031;-59
2023/07/09 03:59:24;;;;;;;10.52;5.90;;;;;;;19.86;64.02;101972.06;7393584;19;20039;-59
2023/07/09 04:01:51;;;;;;;9.55;6.07;;;;;;;19.74;64.04;101974.06;7393086;19;20015;-59
2023/07/09 04:04:20;;;;;;;9.90;6.10;;;;;;;19.85;63.63;101981.97;7393126;19;20022;-59
2023/07/09 04:06:48;;;;;;;9.38;5.93;;;;;;;19.85;63.66;101981.97;7392513;19;20015;-59
2023/07/09 04:09:15;;;;;;;10.05;5.50;;;;;;;19.94;63.10;101980.25;7393254;19;20043;-59
2023/07/09 04:11:42;;;;;;;14.68;6.38;;;;;;;19.86;63.67;101982.81;7391494;19;20014;-59
2023/07/09 04:14:10;;;;;;;9.95;5.22;;;;;;;19.86;63.51;101988.19;7393272;19;20038;-59
2023/07/09 04:16:38;;;;;;;10.07;6.35;;;;;;;19.83;63.27;101983.94;7389070;19;20078;-58
2023/07/09 04:19:09;;;;;;;9.52;6.38;;;;;;;19.81;63.66;101975.19;7392567;19;20022;-58
2023/07/09 04:21:37;;;;;;;10.00;6.43;;;;;;;19.89;63.14;101979.84;7392689;19;20050;-58
2023/07/09 04:24:05;;;;;;;9.82;6.40;;;;;;;19.84;63.23;101972.22;7393204;19;20022;-58
2023/07/09 04:26:32;;;;;;;9.52;6.10;;;;;;;19.87;62.90;101974.59;7391616;19;20022;-57
2023/07/09 04:28:59;;;;;;;8.82;5.75;;;;;;;19.88;63.07;101984.38;7392525;19;20011;-58
2023/07/09 04:31:27;;;;;;;8.77;5.80;;;;;;;19.88;63.37;101980.81;7392855;19;20015;-59
2023/07/09 04:33:54;;;;;;;8.27;5.80;;;;;;;19.94;63.43;101974.88;7391251;19;20082;-58
2023/07/09 04:36:21;;;;;;;8.18;5.75;;;;;;;19.92;63.49;101972.34;7389724;19;20022;-58
2023/07/09 04:38:49;;;;;;;9.77;6.40;;;;;;;19.94;63.13;101969.50;7392554;19;20042;-59
2023/07/09 04:41:16;;;;;;;11.00;6.07;;;;;;;19.93;62.98;101968.63;7392332;19;20372;-60
2023/07/09 04:43:43;;;;;;;9.32;6.40;;;;;;;19.96;63.18;101973.72;7392424;19;20014;-60
2023/07/09 04:46:11;;;;;;;10.70;6.20;;;;;;;19.91;63.26;101973.31;7388983;19;20062;-60
2023/07/09 04:48:38;;;;;;;9.80;5.80;;;;;;;19.91;62.91;101970.59;7391647;19;20018;-61
2023/07/09 04:51:06;;;;;;;9.38;6.22;;;;;;;19.92;63.35;101971.47;7390096;19;20011;-59
2023/07/09 04:53:33;;;;;;;9.50;5.82;;;;;;;20.00;62.99;101965.38;7391985;19;20035;-64
2023/07/09 04:56:04;;;;;;;8.20;6.25;;;;;;;20.04;62.93;101972.16;7389397;19;20025;-60
2023/07/09 04:58:31;;;;;;;10.10;6.15;;;;;;;20.05;62.31;101971.16;7391659;19;20046;-60
2023/07/09 05:01:00;;;;;;;11.43;6.38;;;;;;;20.05;62.45;101980.06;7391878;19;20064;-60
2023/07/09 05:03:27;;;;;;;9.52;6.55;;;;;;;20.12;62.24;101975.81;7390797;19;20035;-60
2023/07/09 05:05:55;;;;;;;9.63;5.95;;;;;;;20.11;62.50;101973.25;7389339;19;20011;-60
2023/07/09 05:08:24;;;;;;;8.52;5.68;;;;;;;20.12;62.28;101973.13;7390686;19;20018;-60
2023/07/09 05:10:52;;;;;;;7.85;5.90;;;;;;;20.15;62.52;101970.16;7391178;19;20010;-60
2023/07/09 05:13:20;;;;;;;8.70;5.90;;;;;;;20.24;62.15;101967.56;7390510;19;20043;-60
2023/07/09 05:15:47;;;;;;;9.40;5.82;;;;;;;20.30;61.83;101970.53;7387878;19;20018;-59
2023/07/09 05:18:18;;;;;;;7.85;5.47;;;;;;;20.35;61.27;101967.41;7390845;19;20042;-58
2023/07/09 05:20:46;;;;;;;10.82;5.78;;;;;;;20.33;61.85;101964.84;7391580;19;20022;-58
2023/07/09 05:23:15;;;;;;;9.30;5.72;;;;;;;20.36;61.60;101956.47;7391023;19;20018;-60
2023/07/09 05:25:43;;;;;;;8.68;5.68;;;;;;;20.47;61.38;101960.84;7387030;19;20047;-59
2023/07/09 05:28:10;;;;;;;9.15;5.70;;;;;;;20.47;61.39;101963.53;7389980;19;20022;-60
2023/07/09 05:30:41;;;;;;;9.48;5.72;;;;;;;20.57;60.99;101964.38;7390690;19;20330;-59
2023/07/09 05:33:08;;;;;;;10.30;5.50;;;;;;;20.64;61.21;101964.59;7390326;19;20018;-60
2023/07/09 05:35:35;;;;;;;8.60;5.60;;;;;;;20.75;61.21;101968.94;7388612;19;20031;-60
2023/07/09 05:38:03;;;;;;;9.02;6.22;;;;;;;20.80;61.08;101975.59;7390015;19;20370;-60
2023/07/09 05:40:30;;;;;;;8.57;5.78;;;;;;;20.85;61.12;101969.75;7390476;19;20035;-60
2023/07/09 05:42:57;;;;;;;11.27;5.68;;;;;;;20.86;61.02;101969.59;7390415;19;20014;-58
2023/07/09 05:45:25;;;;;;;8.00;5.38;;;;;;;20.91;61.25;101964.63;7388857;19;20035;-55
2023/07/09 05:47:52;;;;;;;8.90;5.07;;;;;;;21.02;60.87;101966.22;7392022;19;20014;-54
2023/07/09 05:50:19;;;;;;;8.25;5.57;;;;;;;21.11;60.66;101962.63;7398162;19;20022;-55
2023/07/09 05:52:47;;;;;;;7.50;5.15;;;;;;;21.14;60.65;101970.41;7397682;19;20061;-59
2023/07/09 05:55:14;;;;;;;8.63;5.90;;;;;;;21.14;60.94;101981.19;7394559;19;20093;-60
2023/07/09 05:57:44;;;;;;;8.18;4.88;;;;;;;21.22;60.68;101974.19;7397610;19;20369;-64
2023/07/09 06:00:13;;;;;;;8.75;5.38;;;;;;;21.25;60.76;101976.56;7397028;19;20454;-63
2023/07/09 06:02:40;;;;;;;7.35;5.13;;;;;;;21.30;61.08;101983.22;7396853;19;20030;-62
2023/07/09 06:05:11;;;;;;;9.52;6.13;;;;;;;21.39;60.72;101981.47;7394524;19;20019;-57
2023/07/09 06:07:38;;;;;;;10.23;5.50;;;;;;;21.41;60.44;101987.56;7396010;19;20026;-59
2023/07/09 06:10:08;;;;;;;9.05;5.53;;;;;;;21.50;60.22;101989.31;7397109;19;20018;-54
2023/07/09 06:12:35;;;;;;;12.05;5.75;;;;;;;21.56;59.91;101985.13;7397625;19;20034;-57
2023/07/09 06:15:03;;;;;;;9.82;5.22;;;;;;;21.60;59.88;101984.69;7394879;19;20015;-59
2023/07/09 06:17:30;;;;;;;8.20;4.88;;;;;;;21.65;59.66;101985.06;7397183;19;20018;-58
2023/07/09 06:20:00;;;;;;;7.40;4.70;;;;;;;21.72;60.05;101987.16;7395183;19;20019;-56
2023/07/09 06:22:28;;;;;;;7.18;5.00;;;;;;;21.77;59.29;101974.88;7396694;19;20018;-56
2023/07/09 06:24:56;;;;;;;7.38;5.18;;;;;;;21.82;59.25;101967.16;7393422;19;20043;-58
2023/07/09 06:27:23;;;;;;;9.27;4.97;;;;;;;21.87;59.07;101972.94;7396700;19;20022;-59
2023/07/09 06:29:53;;;;;;;7.55;5.28;;;;;;;21.96;59.27;101971.16;7395973;19;20014;-58
2023/07/09 06:32:21;;;;;;;9.68;5.95;;;;;;;22.01;58.36;101971.50;7396394;19;20030;-58
2023/07/09 06:34:48;;;;;;;9.23;5.13;;;;;;;22.06;58.80;101969.22;7393397;19;20019;-59
2023/07/09 06:37:16;;;;;;;8.07;5.20;;;;;;;22.12;58.64;101970.41;7396795;19;20014;-59
2023/07/09 06:39:43;;;;;;;9.52;5.30;;;;;;;22.16;58.31;101976.38;7394058;19;20047;-59
2023/07/09 06:42:10;;;;;;;7.53;5.10;;;;;;;22.22;58.17;101976.59;7396812;19;20018;-59
2023/07/09 06:44:38;;;;;;;7.43;4.68;;;;;;;22.28;58.60;101975.94;7393415;19;20081;-58
2023/07/09 06:47:05;;;;;;;7.07;4.60;;;;;;;22.30;58.51;101973.94;7395613;19;20019;-59
2023/07/09 06:49:32;;;;;;;6.60;4.68;;;;;;;22.33;58.61;101973.63;7396031;19;20654;-61
2023/07/09 06:52:00;;;;;;;8.70;5.22;;;;;;;22.36;58.46;101972.44;7396078;19;20046;-59
2023/07/09 06:54:27;;;;;;;7.53;4.75;;;;;;;22.45;58.36;101981.44;7394798;19;20060;-59
2023/07/09 06:56:54;;;;;;;7.78;4.93;;;;;;;22.47;58.13;101976.72;7393350;19;20101;-59
2023/07/09 06:59:22;;;;;;;7.63;5.40;;;;;;;22.54;58.27;101980.47;7395201;19;20022;-60
2023/07/09 07:01:49;;;;;;;8.82;5.10;;;;;;;22.58;57.31;101982.66;7394910;19;20463;-59
2023/07/09 07:04:16;;;;;;;9.15;4.70;;;;;;;22.67;55.80;101977.34;7395496;19;20030;-60
2023/07/09 07:06:44;;;;;;;6.65;4.43;;;;;;;22.72;56.09;101974.97;7392311;19;20506;-60
2023/07/09 07:09:16;;;;;;;8.75;4.70;;;;;;;22.74;55.81;101975.66;7395328;19;20015;-60
2023/07/09 07:11:44;;;;;;;7.03;4.40;;;;;;;22.80;55.77;101980.41;7393418;19;20035;-61
2023/07/09 07:14:11;;;;;;;7.03;4.63;;;;;;;22.84;55.35;101979.91;7394688;19;20023;-60
2023/07/09 07:16:39;;;;;;;7.05;4.68;;;;;;;22.95;55.32;101984.22;7391236;19;20023;-61
2023/07/09 07:19:06;;;;;;;8.35;4.90;;;;;;;22.96;55.28;101979.63;7394965;19;20014;-61
2023/07/09 07:21:34;;;;;;;8.82;4.50;;;;;;;23.03;55.33;101977.97;7393148;19;20106;-61
2023/07/09 07:24:02;;;;;;;8.55;4.53;;;;;;;23.10;54.96;101979.84;7394412;19;20015;-59
2023/07/09 07:26:30;;;;;;;7.25;4.68;;;;;;;23.13;54.65;101969.75;7393959;19;20018;-59
2023/07/09 07:28:57;;;;;;;7.10;4.82;;;;;;;23.16;54.10;101969.38;7391525;19;20030;-59
2023/07/09 07:31:25;;;;;;;8.85;5.03;;;;;;;23.25;53.88;101969.25;7390675;19;20038;-59
2023/07/09 07:33:52;;;;;;;10.82;4.97;;;;;;;23.35;53.75;101961.84;7394457;19;20023;-58
2023/07/09 07:36:19;;;;;;;7.90;4.70;;;;;;;23.38;54.09;101965.19;7391099;19;20060;-58
2023/07/09 07:38:57;;;;;;;10.13;5.15;;;;;;;23.38;54.42;101965.19;7393979;19;20018;-58
2023/07/09 07:41:25;;;;;;;8.10;4.80;;;;;;;23.41;54.41;101964.88;7393551;19;20022;-58
2023/07/09 07:43:52;;;;;;;9.65;4.50;;;;;;;23.46;54.13;101962.50;7392904;19;20019;-56
2023/07/09 07:46:20;;;;;;;7.25;4.90;;;;;;;23.58;54.03;101964.72;7389189;19;20495;-58
2023/07/09 07:48:47;;;;;;;7.80;4.80;;;;;;;23.71;53.72;101966.09;7394732;19;20019;-58
2023/07/09 07:51:15;;;;;;;7.05;4.57;;;;;;;23.82;53.94;101972.00;7393400;19;20018;-59
2023/07/09 07:53:42;;;;;;;6.90;4.40;;;;;;;23.80;53.73;101978.59;7393676;19;20026;-58
2023/07/09 07:56:10;;;;;;;7.57;5.05;;;;;;;23.81;53.04;101980.28;7390561;19;20507;-58
2023/07/09 07:58:37;;;;;;;7.28;4.90;;;;;;;23.89;53.06;101976.72;7393930;19;20015;-58
2023/07/09 08:01:04;;;;;;;7.63;4.78;;;;;;;23.94;53.68;101977.06;7393451;19;20082;-59
2023/07/09 08:03:32;;;;;;;6.68;4.50;;;;;;;24.01;53.37;101978.06;7394072;19;20022;-58
2023/07/09 08:05:59;;;;;;;9.02;4.80;;;;;;;23.96;52.56;101975.03;7391106;19;20036;-58
2023/07/09 08:08:29;;;;;;;8.32;4.75;;;;;;;24.03;51.93;101974.16;7393762;19;20029;-59
2023/07/09 08:11:07;;;;;;;7.85;4.68;;;;;;;24.16;51.47;101973.66;7390145;19;20050;-61
2023/07/09 08:13:36;;;;;;;7.18;4.47;;;;;;;24.20;51.61;101977.69;7393521;19;20018;-62
2023/07/09 08:16:05;;;;;;;7.95;4.57;;;;;;;24.29;50.91;101978.50;7390453;19;20018;-62
2023/07/09 08:18:33;;;;;;;7.97;4.45;;;;;;;24.42;50.76;101978.88;7392768;19;20022;-64
2023/07/09 08:21:01;;;;;;;8.45;5.05;;;;;;;24.62;50.43;101978.44;7393647;19;20026;-62
2023/07/09 08:23:29;;;;;;;9.85;5.45;;;;;;;24.62;50.34;101981.16;7392614;19;20013;-62
2023/07/09 08:25:58;;;;;;;7.53;4.30;;;;;;;24.55;50.11;101981.00;7389233;19;20038;-61
2023/07/09 08:28:25;;;;;;;9.02;4.43;;;;;;;24.55;50.14;101978.31;7392987;19;20017;-62
2023/07/09 08:30:53;;;;;;;8.85;4.88;;;;;;;24.43;50.06;101980.53;7392915;19;20039;-61
2023/07/09 08:33:21;;;;;;;8.50;4.95;;;;;;;24.46;49.63;101973.91;7392287;19;20029;-60
2023/07/09 08:35:51;;;;;;;8.80;4.25;;;;;;;24.49;50.12;101981.69;7390404;19;20020;-60
2023/07/09 08:38:18;;;;;;;6.80;4.72;;;;;;;24.66;50.16;101979.78;7392156;19;20015;-62
2023/07/09 08:41:20;;;;;;;8.90;4.95;;;;;;;24.75;49.73;101978.72;7392040;19;20023;-62
2023/07/09 08:44:14;;;;;;;7.93;4.80;;;;;;;24.84;48.54;101987.66;7391465;19;20029;-63
2023/07/09 08:47:03;;;;;;;8.65;4.80;;;;;;;24.93;47.83;101976.59;7391173;19;20040;-63
2023/07/09 08:50:05;;;;;;;8.73;5.00;;;;;;;25.00;48.22;101979.44;7392092;19;20024;-60
2023/07/09 08:52:41;;;;;;;9.55;4.70;;;;;;;24.98;48.32;101982.31;7391699;19;20023;-61
2023/07/09 08:55:15;;;;;;;7.70;4.80;;;;;;;24.92;48.71;101972.22;7388553;19;20014;-61
2023/07/09 08:57:47;;;;;;;9.10;4.63;;;;;;;25.02;48.86;101977.38;7388581;19;20332;-60
2023/07/09 09:00:19;;;;;;;7.43;4.68;;;;;;;24.92;49.25;101974.91;7391395;19;20018;-61
2023/07/09 09:02:57;;;;;;;8.82;4.82;;;;;;;25.02;49.38;101975.53;7391473;19;20038;-60
2023/07/09 09:05:25;;;;;;;10.10;5.25;;;;;;;25.04;49.50;101975.34;7389444;19;20047;-59
2023/07/09 09:08:03;;;;;;;7.78;4.63;;;;;;;25.05;48.85;101969.75;7391445;19;20038;-59
2023/07/09 09:10:53;;;;;;;7.88;4.60;;;;;;;25.08;48.74;101968.56;7391362;19;20038;-59
2023/07/09 09:13:24;;;;;;;7.22;4.80;;;;;;;25.17;49.29;101966.66;7391468;19;20018;-59
2023/07/09 09:15:56;;;;;;;7.78;4.35;;;;;;;25.29;48.97;101965.22;7387646;19;20033;-59
2023/07/09 09:18:27;;;;;;;8.23;4.57;;;;;;;25.38;48.22;101972.28;7391298;19;20014;-59
2023/07/09 09:21:10;;;;;;;7.28;4.40;;;;;;;25.52;47.76;101965.22;7389901;19;20055;-61
2023/07/09 09:23:46;;;;;;;9.10;4.95;;;;;;;25.62;47.68;101962.25;7389421;19;20073;-61
2023/07/09 09:26:23;;;;;;;8.85;4.68;;;;;;;25.64;47.99;101957.47;7388436;19;20491;-61
2023/07/09 09:28:51;;;;;;;7.85;4.75;;;;;;;25.59;47.92;101957.19;7390991;19;20025;-61
2023/07/09 09:31:18;;;;;;;7.63;4.32;;;;;;;25.65;47.14;101962.75;7391381;19;20022;-61
2023/07/09 09:33:48;;;;;;;7.97;4.68;;;;;;;25.73;47.40;101951.81;7390989;19;20463;-61
2023/07/09 09:36:17;;;;;;;7.18;4.90;;;;;;;25.65;47.69;101951.03;7389712;19;20043;-58
2023/07/09 09:38:45;;;;;;;7.55;4.90;;;;;;;25.45;48.08;101953.41;7390483;19;20019;-58
2023/07/09 09:41:17;;;;;;;8.68;4.88;;;;;;;25.51;47.47;101953.53;7390687;19;20018;-58
2023/07/09 09:43:46;;;;;;;8.45;4.85;;;;;;;25.52;46.91;101955.19;7388547;19;20036;-57
2023/07/09 09:46:20;;;;;;;8.93;4.50;;;;;;;25.59;47.03;101954.47;7386437;19;20049;-58
2023/07/09 09:48:49;;;;;;;7.07;4.60;;;;;;;25.64;47.16;101958.34;7390267;19;20046;-58
2023/07/09 09:51:18;;;;;;;6.50;4.15;;;;;;;25.70;46.67;101964.91;7391031;19;20035;-58
2023/07/09 09:53:50;;;;;;;8.88;4.60;;;;;;;25.75;46.42;101960.59;7390294;19;20019;-59
2023/07/09 09:56:24;;;;;;;8.10;5.00;;;;;;;25.82;46.64;101951.75;7387928;19;20042;-61
2023/07/09 09:58:56;;;;;;;7.65;4.40;;;;;;;25.96;47.09;101959.94;7389029;19;20038;-59
2023/07/09 10:01:34;;;;;;;9.30;4.63;;;;;;;25.93;46.32;101949.44;7389725;19;20011;-59
2023/07/09 10:04:04;;;;;;;8.40;5.00;;;;;;;25.88;46.80;101949.16;7390116;19;20018;-61
2023/07/09 10:06:40;;;;;;;8.55;4.90;;;;;;;26.00;46.95;101952.25;7387354;19;20029;-58
2023/07/09 10:09:36;;;;;;;8.02;4.40;;;;;;;26.34;46.25;101951.72;7389009;19;20038;-58
2023/07/09 10:12:16;;;;;;;8.45;4.70;;;;;;;26.13;46.83;101951.59;7389608;19;20038;-59
2023/07/09 10:15:10;;;;;;;7.43;4.60;;;;;;;26.20;46.58;101955.25;7388240;19;20415;-59
2023/07/09 10:17:59;;;;;;;7.43;4.65;;;;;;;26.22;46.34;101955.94;7388447;19;20479;-59
2023/07/09 10:20:37;;;;;;;7.15;4.75;;;;;;;26.44;46.49;101948.69;7389409;19;20029;-59
2023/07/09 10:23:30;;;;;;;7.57;4.90;;;;;;;26.67;45.78;101948.59;7389389;19;20045;-61
2023/07/09 10:26:13;;;;;;;9.98;6.45;;;;;;;26.59;45.56;101949.56;7386678;19;20015;-58
2023/07/09 10:28:52;;;;;;;7.82;5.20;;;;;;;26.54;46.34;101953.88;7387575;19;20022;-58
2023/07/09 10:31:39;;;;;;;8.18;5.22;;;;;;;26.52;45.84;101943.22;7388997;19;20018;-58
2023/07/09 10:34:31;;;;;;;7.45;4.72;;;;;;;26.61;46.05;101946.66;7392399;19;20042;-60
2023/07/09 10:37:17;;;;;;;7.78;4.75;;;;;;;26.64;45.82;101944.41;7395546;19;20014;-59
2023/07/09 10:39:50;;;;;;;8.00;5.00;;;;;;;26.62;45.89;101948.34;7395964;19;20039;-60
2023/07/09 10:42:30;;;;;;;9.82;5.03;;;;;;;26.82;45.60;101941.25;7395561;19;20015;-60
2023/07/09 10:45:03;;;;;;;10.88;5.72;;;;;;;26.88;45.62;101943.22;7394313;19;20042;-57
2023/07/09 10:47:37;;;;;;;8.38;5.28;;;;;;;26.85;46.05;101943.59;7395576;19;20022;-57
2023/07/09 10:50:12;;;;;;;8.50;4.80;;;;;;;26.84;44.95;101941.91;7395760;19;20027;-57
2023/07/09 10:52:43;;;;;;;9.48;5.07;;;;;;;26.85;44.78;101946.31;7394385;19;20018;-58
2023/07/09 10:55:21;;;;;;;7.88;4.90;;;;;;;27.02;44.94;101949.66;7393850;19;20096;-58
2023/07/09 10:57:56;;;;;;;8.68;4.80;;;;;;;27.06;44.83;101945.53;7394464;19;20421;-58
2023/07/09 11:00:38;;;;;;;9.68;5.10;;;;;;;27.16;44.62;101945.22;7395027;19;20018;-57
2023/07/09 11:03:15;;;;;;;8.30;4.95;;;;;;;27.11;45.90;101944.97;7395327;19;20011;-58
2023/07/09 11:05:43;;;;;;;10.57;4.88;;;;;;;27.14;45.48;101941.88;7393291;19;20015;-58
2023/07/09 11:08:20;;;;;;;10.32;5.38;;;;;;;27.28;45.39;101948.25;7395288;19;20034;-57
2023/07/09 11:10:58;;;;;;;7.97;5.22;;;;;;;27.29;45.17;101941.81;7395187;19;20026;-58
2023/07/09 11:13:36;;;;;;;7.00;4.70;;;;;;;27.15;45.22;101935.38;7394840;19;20029;-57
2023/07/09 11:16:32;;;;;;;8.45;4.78;;;;;;;27.09;44.66;101934.25;7392530;19;20023;-57
2023/07/09 11:19:03;;;;;;;8.77;5.07;;;;;;;27.13;45.00;101929.28;7396953;19;20049;-57
2023/07/09 11:21:30;;;;;;;7.97;5.10;;;;;;;27.29;45.33;101920.88;7392489;19;20580;-58
2023/07/09 11:24:00;;;;;;;7.40;5.10;;;;;;;27.38;45.58;101927.88;7394326;19;20015;-57
2023/07/09 11:26:33;;;;;;;8.70;4.70;;;;;;;27.37;45.13;101912.59;7390826;19;20007;-57
2023/07/09 11:29:06;;;;;;;9.15;5.20;;;;;;;27.32;45.23;101912.34;7394368;19;20022;-57
2023/07/09 11:31:38;;;;;;;7.47;4.55;;;;;;;27.35;45.99;101911.09;7393922;19;20018;-57
2023/07/09 11:34:13;;;;;;;8.45;5.00;;;;;;;27.38;45.47;101900.66;7394488;19;20006;-57
2023/07/09 11:36:55;;;;;;;8.65;5.15;;;;;;;27.46;43.88;101897.78;7392976;19;20106;-58
2023/07/09 11:39:47;;;;;;;7.68;5.05;;;;;;;27.55;44.17;101903.94;7394185;19;20027;-58
2023/07/09 11:42:27;;;;;;;9.27;4.88;;;;;;;27.61;43.50;101892.25;7393671;19;20011;-58